KMVL

Morrisville-Stowe State Airport

Morrisville, Vermont, USA
METAR KMVL 201954Z AUTO 18006KT 10SM FEW060 25/14 A3014 RMK AO2 SLP206 T02500139
Observed Flight Rules
Aug-20 @ 19:54 UTC (36 minutes ago) Visual Flight Rules
Wind Visibility Clouds
180° at 6 knots 10 miles
  • Few at 6,000' AGL
Temperatures Readings
Current 25°C / 77°F
Dewpoint 14°C / 57°F
Humidity 51%
Altimeter 30.14" Hg
Pressure 1020.6 hPa
Elevation 234
METAR KMVL 201954Z AUTO 18006KT 10SM FEW060 25/14 A3014 RMK AO2 SLP206 T02500139
Observed Flight Rules
Aug-20 @ 19:54 UTC
(36 minutes ago)
VFR
Wind Visibility
180° at 6 knots 10 miles
Clouds
  • Few at 6,000' AGL
Temperature Dewpoint
25°C / 77°F 14°C / 57°F
Humidity Altimeter Pressure
51% 30.14" Hg 1020.6 hPa